Aeroporto :
LOGIN :

Iscrizione | Disclaimer

   EN    FR    IT 

 










Sommario :    VFR   VFR Marginale   IFR   IFR Intensivo   IFR Molto Intensivo
Visibilità : 
Base nubi : 
>= 8 km
>= 3000ft
5 / 8 km
1000 / 3000 ft
1500m / 5 km
500 / 1000 ft
800 / 1500m
200 / 500 ft
< 800m
< 200 ft
Simboli :   Temporali  Nebbia  Neve Forte  Precipitazioni Forti  Vento > 20 kt
SIGMETs :   Varie  Temporali  Ghiacco  Turbolenza  Onda orograficha  Ceneri Vulcaniche






- Altitudine del aeroporto : 458 ft


LFSI - St-Dizier

ULTIMO METAR :
  • 192330Z AUTO 17006KT 140V200 9999 -RA FEW008 BKN027 OVC033 06/05 Q1024

METARs OBSOLETI :
  • 192300Z AUTO 19007KT 160V220 6000 -RA BKN009/// BKN015/// BKN029/// ///TCU 06/05 Q1024
  • 192230Z AUTO 20007KT 170V230 8000 -RA FEW012/// BKN032/// BKN039/// ///TCU 06/05 Q1024
  • 192200Z AUTO 20007KT 9999 -RA BKN022 BKN031 OVC046 06/04 Q1025
  • 192130Z AUTO 19006KT 9999 -RA OVC023 06/05 Q1025
  • 192100Z AUTO 19006KT 9999 -RA SCT025 BKN032 OVC046 06/04 Q1025
  • 192030Z AUTO 20006KT 9999 -RA BKN035 BKN043 BKN060 06/04 Q1025

TAF TAF LFSI
Valido dal 19 a 21 ore il 20 a 21 ore UTC


192000Z 1921/2021 21010KT 9999 BKN020
TEMPO 2000/2002 20010G20KT BKN007 BKN015
BECMG 2013/2015 23015G30KT
BECMG 2019/2021 23020G40KT RA
TEMPO 2019/2021 23020G50KT



MetMap, La meteo Aeronautica in un colpo d'occhio ! - Copyright ORBIFLY Dicembre 2007 - Disclaimer

ORBIFLY MET'MAP TEAM :

Programmazione e sviluppo : Alexandra Zaïnal
Concezione : Baudouin d'Aumeries
Aiuto per la programmazione : Marc-Olivier Méhu
Supporto tecnico e logistico : Manuel Goepfert
Aiuto per la traduzione : Arnaldo La Scala

Contatto : metmap@orbifly.com




FONTI E CREDITI :

   NOAA